ルレオ の空港の天気 - METARとTAF

Lulea / Kallax ( ESPA / LLA ) - スウェーデン ルレオ
飛行場実況気象(Metar)
観測時間05/25 12:20 CEST (05/25 10:20 UTC)
風向・風速不定 2m/s
視程10km以上
天気現象
なし
気温15℃
湿度39%
気圧1006hPa
METARESPA 251020Z VRB03KT CAVOK 15/01 Q1006
過去の天気等 Google飛行場航空写真 Wunderground天気予報

過去48時間のMETAR

飛行場予報(TAF)
発表時間: 5/25 10:30 CEST (5/25 08:30 UTC)
予報対象時間: 25日11時 CEST ~ 25日20時 CEST
風向・風速北西 5m/s
視程10km以上
なし
25日11時 CEST ~ 25日14時 CEST に徐々に
風向・風速南南西 5m/s
TAF ESPA 250830Z 2509/2518 32010KT CAVOK
BECMG 2509/2512 20010KT RMK MIL